sensor_id;sensor_type;location;lat;lon;timestamp;P1;durP1;ratioP1;P2;durP2;ratioP2
31238;SDS011;17871;31.584;74.450;2023-03-15T00:01:12;93.78;;;43.67;;
31238;SDS011;17871;31.584;74.450;2023-03-15T00:03:44;92.03;;;44.72;;
31238;SDS011;17871;31.584;74.450;2023-03-15T00:06:13;85.50;;;42.22;;
31238;SDS011;17871;31.584;74.450;2023-03-15T00:08:43;109.93;;;44.20;;
31238;SDS011;17871;31.584;74.450;2023-03-15T00:11:15;94.40;;;42.17;;
31238;SDS011;17871;31.584;74.450;2023-03-15T00:13:45;85.13;;;38.95;;
31238;SDS011;17871;31.584;74.450;2023-03-15T00:16:14;81.55;;;40.95;;
31238;SDS011;17871;31.584;74.450;2023-03-15T00:18:45;76.22;;;41.72;;
31238;SDS011;17871;31.584;74.450;2023-03-15T00:21:14;86.50;;;42.85;;
31238;SDS011;17871;31.584;74.450;2023-03-15T00:23:43;93.63;;;42.20;;
31238;SDS011;17871;31.584;74.450;2023-03-15T00:26:12;103.47;;;43.53;;
31238;SDS011;17871;31.584;74.450;2023-03-15T00:28:41;118.40;;;43.70;;
31238;SDS011;17871;31.584;74.450;2023-03-15T00:31:14;82.00;;;41.30;;
31238;SDS011;17871;31.584;74.450;2023-03-15T00:33:46;92.38;;;40.85;;
31238;SDS011;17871;31.584;74.450;2023-03-15T00:36:16;86.30;;;40.72;;
31238;SDS011;17871;31.584;74.450;2023-03-15T00:38:44;81.90;;;41.30;;
31238;SDS011;17871;31.584;74.450;2023-03-15T00:41:15;76.57;;;40.45;;
31238;SDS011;17871;31.584;74.450;2023-03-15T00:43:45;73.60;;;38.42;;
31238;SDS011;17871;31.584;74.450;2023-03-15T00:46:15;69.63;;;36.80;;
31238;SDS011;17871;31.584;74.450;2023-03-15T00:48:48;81.75;;;38.97;;
31238;SDS011;17871;31.584;74.450;2023-03-15T00:51:19;78.28;;;40.38;;
31238;SDS011;17871;31.584;74.450;2023-03-15T00:53:51;81.63;;;40.83;;
31238;SDS011;17871;31.584;74.450;2023-03-15T00:56:23;100.68;;;40.00;;
31238;SDS011;17871;31.584;74.450;2023-03-15T00:58:57;81.25;;;40.42;;
31238;SDS011;17871;31.584;74.450;2023-03-15T01:01:29;79.15;;;40.13;;
31238;SDS011;17871;31.584;74.450;2023-03-15T01:04:03;91.55;;;41.58;;
31238;SDS011;17871;31.584;74.450;2023-03-15T01:06:36;94.72;;;41.40;;
31238;SDS011;17871;31.584;74.450;2023-03-15T01:09:08;78.25;;;42.58;;
31238;SDS011;17871;31.584;74.450;2023-03-15T01:14:13;97.53;;;41.33;;
31238;SDS011;17871;31.584;74.450;2023-03-15T01:16:44;100.18;;;45.90;;
31238;SDS011;17871;31.584;74.450;2023-03-15T01:19:14;93.18;;;44.22;;
31238;SDS011;17871;31.584;74.450;2023-03-15T01:21:46;92.28;;;42.30;;
31238;SDS011;17871;31.584;74.450;2023-03-15T01:24:16;108.80;;;43.15;;
31238;SDS011;17871;31.584;74.450;2023-03-15T01:26:48;106.75;;;43.58;;
31238;SDS011;17871;31.584;74.450;2023-03-15T01:29:19;108.72;;;44.30;;
31238;SDS011;17871;31.584;74.450;2023-03-15T01:31:49;85.88;;;43.25;;
31238;SDS011;17871;31.584;74.450;2023-03-15T01:34:20;111.55;;;44.03;;
31238;SDS011;17871;31.584;74.450;2023-03-15T01:36:50;92.40;;;45.05;;
31238;SDS011;17871;31.584;74.450;2023-03-15T01:39:30;102.20;;;44.08;;
31238;SDS011;17871;31.584;74.450;2023-03-15T01:42:01;108.90;;;45.20;;
31238;SDS011;17871;31.584;74.450;2023-03-15T01:44:50;103.80;;;45.60;;
31238;SDS011;17871;31.584;74.450;2023-03-15T01:47:23;114.03;;;45.53;;
31238;SDS011;17871;31.584;74.450;2023-03-15T01:49:58;113.13;;;52.60;;
31238;SDS011;17871;31.584;74.450;2023-03-15T01:52:38;114.57;;;48.60;;
31238;SDS011;17871;31.584;74.450;2023-03-15T01:55:16;114.75;;;47.72;;
31238;SDS011;17871;31.584;74.450;2023-03-15T01:58:09;91.13;;;45.90;;
31238;SDS011;17871;31.584;74.450;2023-03-15T02:00:42;97.63;;;48.42;;
31238;SDS011;17871;31.584;74.450;2023-03-15T02:03:17;114.95;;;51.50;;
31238;SDS011;17871;31.584;74.450;2023-03-15T02:06:03;110.25;;;52.78;;
31238;SDS011;17871;31.584;74.450;2023-03-15T02:08:44;107.93;;;53.65;;
31238;SDS011;17871;31.584;74.450;2023-03-15T02:11:20;103.88;;;54.72;;
31238;SDS011;17871;31.584;74.450;2023-03-15T02:13:54;106.78;;;53.15;;
31238;SDS011;17871;31.584;74.450;2023-03-15T02:16:26;109.65;;;54.63;;
31238;SDS011;17871;31.584;74.450;2023-03-15T02:19:05;102.82;;;52.08;;
31238;SDS011;17871;31.584;74.450;2023-03-15T02:21:46;108.15;;;51.50;;
31238;SDS011;17871;31.584;74.450;2023-03-15T02:24:49;94.97;;;53.80;;
31238;SDS011;17871;31.584;74.450;2023-03-15T02:27:31;93.65;;;49.53;;
31238;SDS011;17871;31.584;74.450;2023-03-15T02:30:03;114.63;;;51.28;;
31238;SDS011;17871;31.584;74.450;2023-03-15T02:32:35;102.83;;;53.47;;
31238;SDS011;17871;31.584;74.450;2023-03-15T02:35:05;117.25;;;52.33;;
31238;SDS011;17871;31.584;74.450;2023-03-15T02:37:35;109.55;;;50.30;;
31238;SDS011;17871;31.584;74.450;2023-03-15T02:40:10;100.80;;;52.97;;
31238;SDS011;17871;31.584;74.450;2023-03-15T02:42:47;87.70;;;50.58;;
31238;SDS011;17871;31.584;74.450;2023-03-15T02:45:23;99.88;;;46.80;;
31238;SDS011;17871;31.584;74.450;2023-03-15T02:47:55;83.90;;;44.57;;
31238;SDS011;17871;31.584;74.450;2023-03-15T02:50:25;86.97;;;42.13;;
31238;SDS011;17871;31.584;74.450;2023-03-15T02:52:55;83.07;;;40.55;;
31238;SDS011;17871;31.584;74.450;2023-03-15T02:55:28;69.60;;;37.22;;
31238;SDS011;17871;31.584;74.450;2023-03-15T02:58:01;81.13;;;38.45;;
31238;SDS011;17871;31.584;74.450;2023-03-15T03:00:32;75.47;;;39.35;;
31238;SDS011;17871;31.584;74.450;2023-03-15T03:03:02;83.38;;;40.50;;
31238;SDS011;17871;31.584;74.450;2023-03-15T03:05:33;80.88;;;40.08;;
31238;SDS011;17871;31.584;74.450;2023-03-15T03:08:03;87.28;;;40.70;;
31238;SDS011;17871;31.584;74.450;2023-03-15T03:10:34;84.68;;;41.15;;
31238;SDS011;17871;31.584;74.450;2023-03-15T03:13:04;80.20;;;41.20;;
31238;SDS011;17871;31.584;74.450;2023-03-15T03:15:36;84.72;;;42.92;;
31238;SDS011;17871;31.584;74.450;2023-03-15T03:18:07;121.63;;;46.83;;
31238;SDS011;17871;31.584;74.450;2023-03-15T03:20:37;88.03;;;43.17;;
31238;SDS011;17871;31.584;74.450;2023-03-15T03:23:07;89.13;;;45.60;;
31238;SDS011;17871;31.584;74.450;2023-03-15T03:25:37;130.60;;;43.60;;
31238;SDS011;17871;31.584;74.450;2023-03-15T03:28:07;88.10;;;45.10;;
31238;SDS011;17871;31.584;74.450;2023-03-15T03:30:37;98.50;;;46.05;;
31238;SDS011;17871;31.584;74.450;2023-03-15T03:33:07;88.20;;;46.38;;
31238;SDS011;17871;31.584;74.450;2023-03-15T03:35:37;87.47;;;44.35;;
31238;SDS011;17871;31.584;74.450;2023-03-15T03:38:08;85.60;;;44.30;;
31238;SDS011;17871;31.584;74.450;2023-03-15T03:40:44;86.90;;;44.22;;
31238;SDS011;17871;31.584;74.450;2023-03-15T03:43:15;87.45;;;43.65;;
31238;SDS011;17871;31.584;74.450;2023-03-15T03:45:45;86.68;;;43.35;;
31238;SDS011;17871;31.584;74.450;2023-03-15T03:48:16;89.70;;;40.58;;
31238;SDS011;17871;31.584;74.450;2023-03-15T03:50:46;92.32;;;41.47;;
31238;SDS011;17871;31.584;74.450;2023-03-15T03:53:16;85.65;;;41.00;;
31238;SDS011;17871;31.584;74.450;2023-03-15T03:55:45;84.10;;;40.63;;
31238;SDS011;17871;31.584;74.450;2023-03-15T03:58:18;70.85;;;38.58;;
31238;SDS011;17871;31.584;74.450;2023-03-15T04:00:54;77.70;;;36.97;;
31238;SDS011;17871;31.584;74.450;2023-03-15T04:03:28;76.07;;;38.80;;
31238;SDS011;17871;31.584;74.450;2023-03-15T04:06:08;77.85;;;36.40;;
31238;SDS011;17871;31.584;74.450;2023-03-15T04:08:41;76.60;;;39.38;;
31238;SDS011;17871;31.584;74.450;2023-03-15T04:11:17;86.40;;;36.60;;
31238;SDS011;17871;31.584;74.450;2023-03-15T04:13:53;111.38;;;36.03;;
31238;SDS011;17871;31.584;74.450;2023-03-15T04:16:23;61.80;;;33.72;;
31238;SDS011;17871;31.584;74.450;2023-03-15T04:19:05;70.80;;;32.63;;
31238;SDS011;17871;31.584;74.450;2023-03-15T04:21:35;70.32;;;31.67;;
31238;SDS011;17871;31.584;74.450;2023-03-15T04:24:24;67.80;;;32.50;;
31238;SDS011;17871;31.584;74.450;2023-03-15T04:27:05;68.85;;;33.53;;
31238;SDS011;17871;31.584;74.450;2023-03-15T04:29:43;78.10;;;35.38;;
31238;SDS011;17871;31.584;74.450;2023-03-15T04:32:42;64.10;;;31.70;;
31238;SDS011;17871;31.584;74.450;2023-03-15T04:35:20;65.13;;;31.73;;
31238;SDS011;17871;31.584;74.450;2023-03-15T04:37:57;64.38;;;32.05;;
31238;SDS011;17871;31.584;74.450;2023-03-15T04:40:46;70.10;;;30.65;;
31238;SDS011;17871;31.584;74.450;2023-03-15T04:43:29;76.40;;;32.13;;
31238;SDS011;17871;31.584;74.450;2023-03-15T04:46:36;57.13;;;31.33;;
31238;SDS011;17871;31.584;74.450;2023-03-15T04:49:34;64.13;;;31.02;;
31238;SDS011;17871;31.584;74.450;2023-03-15T04:52:21;59.33;;;29.17;;
31238;SDS011;17871;31.584;74.450;2023-03-15T04:54:56;52.25;;;29.83;;
31238;SDS011;17871;31.584;74.450;2023-03-15T04:57:54;58.13;;;28.85;;
31238;SDS011;17871;31.584;74.450;2023-03-15T05:00:47;57.55;;;29.58;;
31238;SDS011;17871;31.584;74.450;2023-03-15T05:03:32;80.50;;;34.97;;
31238;SDS011;17871;31.584;74.450;2023-03-15T05:06:22;64.15;;;29.45;;
31238;SDS011;17871;31.584;74.450;2023-03-15T05:08:54;62.28;;;28.20;;
31238;SDS011;17871;31.584;74.450;2023-03-15T05:11:32;50.30;;;27.98;;
31238;SDS011;17871;31.584;74.450;2023-03-15T05:14:20;61.15;;;31.98;;
31238;SDS011;17871;31.584;74.450;2023-03-15T05:17:07;59.13;;;28.25;;
31238;SDS011;17871;31.584;74.450;2023-03-15T05:19:54;53.67;;;25.38;;
31238;SDS011;17871;31.584;74.450;2023-03-15T05:22:41;49.53;;;24.42;;
31238;SDS011;17871;31.584;74.450;2023-03-15T05:25:31;61.85;;;24.83;;
31238;SDS011;17871;31.584;74.450;2023-03-15T05:28:16;40.13;;;23.17;;
31238;SDS011;17871;31.584;74.450;2023-03-15T05:31:04;53.75;;;24.25;;
31238;SDS011;17871;31.584;74.450;2023-03-15T05:33:53;55.53;;;24.60;;
31238;SDS011;17871;31.584;74.450;2023-03-15T05:36:42;38.70;;;23.90;;
31238;SDS011;17871;31.584;74.450;2023-03-15T05:39:14;55.33;;;22.95;;
31238;SDS011;17871;31.584;74.450;2023-03-15T05:41:59;47.03;;;22.58;;
31238;SDS011;17871;31.584;74.450;2023-03-15T05:44:47;45.10;;;20.38;;
31238;SDS011;17871;31.584;74.450;2023-03-15T05:47:22;41.53;;;20.25;;
31238;SDS011;17871;31.584;74.450;2023-03-15T05:50:11;35.80;;;18.05;;
31238;SDS011;17871;31.584;74.450;2023-03-15T05:52:57;55.70;;;18.38;;
31238;SDS011;17871;31.584;74.450;2023-03-15T05:55:53;42.53;;;16.98;;
31238;SDS011;17871;31.584;74.450;2023-03-15T05:58:42;57.22;;;19.75;;
31238;SDS011;17871;31.584;74.450;2023-03-15T06:01:17;68.65;;;18.85;;
31238;SDS011;17871;31.584;74.450;2023-03-15T06:04:05;72.03;;;20.17;;
31238;SDS011;17871;31.584;74.450;2023-03-15T06:06:35;31.85;;;16.38;;
31238;SDS011;17871;31.584;74.450;2023-03-15T06:09:06;42.58;;;17.52;;
31238;SDS011;17871;31.584;74.450;2023-03-15T06:11:35;41.03;;;17.58;;
31238;SDS011;17871;31.584;74.450;2023-03-15T06:14:05;40.35;;;17.83;;
31238;SDS011;17871;31.584;74.450;2023-03-15T06:19:17;39.90;;;17.02;;
31238;SDS011;17871;31.584;74.450;2023-03-15T06:21:48;29.60;;;16.42;;
31238;SDS011;17871;31.584;74.450;2023-03-15T06:24:31;40.13;;;15.38;;
31238;SDS011;17871;31.584;74.450;2023-03-15T06:27:00;40.78;;;19.70;;
31238;SDS011;17871;31.584;74.450;2023-03-15T06:29:29;39.05;;;15.40;;
31238;SDS011;17871;31.584;74.450;2023-03-15T06:31:59;37.15;;;18.02;;
31238;SDS011;17871;31.584;74.450;2023-03-15T06:34:29;32.15;;;17.00;;
31238;SDS011;17871;31.584;74.450;2023-03-15T06:36:59;28.50;;;16.02;;
31238;SDS011;17871;31.584;74.450;2023-03-15T06:39:29;42.53;;;18.75;;
31238;SDS011;17871;31.584;74.450;2023-03-15T06:42:04;46.97;;;16.73;;
31238;SDS011;17871;31.584;74.450;2023-03-15T06:44:40;46.90;;;17.42;;
31238;SDS011;17871;31.584;74.450;2023-03-15T06:47:12;47.05;;;18.80;;
31238;SDS011;17871;31.584;74.450;2023-03-15T06:49:42;37.92;;;16.98;;
31238;SDS011;17871;31.584;74.450;2023-03-15T06:52:12;36.25;;;16.85;;
31238;SDS011;17871;31.584;74.450;2023-03-15T06:54:42;37.67;;;18.35;;
31238;SDS011;17871;31.584;74.450;2023-03-15T06:57:12;43.25;;;16.95;;
31238;SDS011;17871;31.584;74.450;2023-03-15T06:59:41;34.08;;;16.90;;
31238;SDS011;17871;31.584;74.450;2023-03-15T07:02:15;51.08;;;18.65;;
31238;SDS011;17871;31.584;74.450;2023-03-15T07:04:46;38.80;;;16.58;;
31238;SDS011;17871;31.584;74.450;2023-03-15T07:07:17;43.17;;;18.45;;
31238;SDS011;17871;31.584;74.450;2023-03-15T07:09:47;42.72;;;18.13;;
31238;SDS011;17871;31.584;74.450;2023-03-15T07:12:18;35.80;;;17.73;;
31238;SDS011;17871;31.584;74.450;2023-03-15T07:14:48;37.70;;;16.98;;
31238;SDS011;17871;31.584;74.450;2023-03-15T07:17:18;32.97;;;17.25;;
31238;SDS011;17871;31.584;74.450;2023-03-15T07:19:48;31.02;;;16.45;;
31238;SDS011;17871;31.584;74.450;2023-03-15T07:22:23;34.25;;;18.25;;
31238;SDS011;17871;31.584;74.450;2023-03-15T07:24:54;41.03;;;19.27;;
31238;SDS011;17871;31.584;74.450;2023-03-15T07:27:25;38.15;;;17.70;;
31238;SDS011;17871;31.584;74.450;2023-03-15T07:30:00;49.45;;;19.52;;
31238;SDS011;17871;31.584;74.450;2023-03-15T07:32:31;37.45;;;17.67;;
31238;SDS011;17871;31.584;74.450;2023-03-15T07:35:01;40.20;;;17.42;;
31238;SDS011;17871;31.584;74.450;2023-03-15T07:37:32;30.73;;;16.73;;
31238;SDS011;17871;31.584;74.450;2023-03-15T07:40:01;84.35;;;22.55;;
31238;SDS011;17871;31.584;74.450;2023-03-15T07:42:34;41.83;;;20.00;;
31238;SDS011;17871;31.584;74.450;2023-03-15T07:45:06;37.55;;;18.52;;
31238;SDS011;17871;31.584;74.450;2023-03-15T07:47:37;42.83;;;17.73;;
31238;SDS011;17871;31.584;74.450;2023-03-15T07:50:07;37.67;;;16.85;;
31238;SDS011;17871;31.584;74.450;2023-03-15T07:52:37;29.85;;;19.05;;
31238;SDS011;17871;31.584;74.450;2023-03-15T07:55:07;38.13;;;18.50;;
31238;SDS011;17871;31.584;74.450;2023-03-15T07:57:37;28.33;;;15.52;;
31238;SDS011;17871;31.584;74.450;2023-03-15T08:00:07;31.55;;;17.02;;
31238;SDS011;17871;31.584;74.450;2023-03-15T08:02:39;39.58;;;17.38;;
31238;SDS011;17871;31.584;74.450;2023-03-15T08:05:09;37.50;;;17.50;;
31238;SDS011;17871;31.584;74.450;2023-03-15T08:07:39;39.08;;;17.52;;
31238;SDS011;17871;31.584;74.450;2023-03-15T08:10:09;33.90;;;17.98;;
31238;SDS011;17871;31.584;74.450;2023-03-15T08:12:39;41.42;;;18.30;;
31238;SDS011;17871;31.584;74.450;2023-03-15T08:15:11;35.20;;;18.20;;
31238;SDS011;17871;31.584;74.450;2023-03-15T08:17:42;41.23;;;17.23;;
31238;SDS011;17871;31.584;74.450;2023-03-15T08:20:12;37.38;;;17.15;;
31238;SDS011;17871;31.584;74.450;2023-03-15T08:22:46;47.30;;;19.98;;
31238;SDS011;17871;31.584;74.450;2023-03-15T08:25:18;31.60;;;17.60;;
31238;SDS011;17871;31.584;74.450;2023-03-15T08:27:51;31.15;;;17.33;;
31238;SDS011;17871;31.584;74.450;2023-03-15T08:30:21;43.13;;;17.75;;
31238;SDS011;17871;31.584;74.450;2023-03-15T08:32:52;39.95;;;16.35;;
31238;SDS011;17871;31.584;74.450;2023-03-15T08:35:21;40.25;;;17.52;;
31238;SDS011;17871;31.584;74.450;2023-03-15T08:37:51;117.22;;;20.50;;
31238;SDS011;17871;31.584;74.450;2023-03-15T08:40:21;32.85;;;17.30;;
31238;SDS011;17871;31.584;74.450;2023-03-15T08:42:54;53.08;;;20.80;;
31238;SDS011;17871;31.584;74.450;2023-03-15T08:45:24;42.75;;;18.35;;
31238;SDS011;17871;31.584;74.450;2023-03-15T08:47:55;43.65;;;18.83;;
31238;SDS011;17871;31.584;74.450;2023-03-15T08:50:28;45.75;;;20.40;;
31238;SDS011;17871;31.584;74.450;2023-03-15T08:53:01;50.28;;;19.30;;
31238;SDS011;17871;31.584;74.450;2023-03-15T08:55:31;38.33;;;19.10;;
31238;SDS011;17871;31.584;74.450;2023-03-15T08:58:01;45.47;;;20.42;;
31238;SDS011;17871;31.584;74.450;2023-03-15T09:00:32;37.58;;;18.80;;
31238;SDS011;17871;31.584;74.450;2023-03-15T09:03:03;26.90;;;16.00;;
31238;SDS011;17871;31.584;74.450;2023-03-15T09:05:33;34.60;;;16.80;;
31238;SDS011;17871;31.584;74.450;2023-03-15T09:08:03;35.60;;;15.82;;
31238;SDS011;17871;31.584;74.450;2023-03-15T09:10:32;43.75;;;15.40;;
31238;SDS011;17871;31.584;74.450;2023-03-15T09:13:02;30.50;;;18.92;;
31238;SDS011;17871;31.584;74.450;2023-03-15T09:15:32;33.33;;;17.38;;
31238;SDS011;17871;31.584;74.450;2023-03-15T09:18:02;28.10;;;17.58;;
31238;SDS011;17871;31.584;74.450;2023-03-15T09:20:32;35.28;;;15.13;;
31238;SDS011;17871;31.584;74.450;2023-03-15T09:23:02;44.72;;;16.92;;
31238;SDS011;17871;31.584;74.450;2023-03-15T09:25:31;63.40;;;21.15;;
31238;SDS011;17871;31.584;74.450;2023-03-15T09:28:04;42.58;;;16.73;;
31238;SDS011;17871;31.584;74.450;2023-03-15T09:30:37;54.15;;;17.73;;
31238;SDS011;17871;31.584;74.450;2023-03-15T09:33:08;40.22;;;17.05;;
31238;SDS011;17871;31.584;74.450;2023-03-15T09:35:43;51.92;;;21.13;;
31238;SDS011;17871;31.584;74.450;2023-03-15T09:38:14;34.88;;;19.15;;
31238;SDS011;17871;31.584;74.450;2023-03-15T09:40:50;31.63;;;17.33;;
31238;SDS011;17871;31.584;74.450;2023-03-15T09:46:28;27.08;;;17.10;;
31238;SDS011;17871;31.584;74.450;2023-03-15T09:49:12;31.83;;;15.80;;
31238;SDS011;17871;31.584;74.450;2023-03-15T09:57:45;29.55;;;15.18;;
31238;SDS011;17871;31.584;74.450;2023-03-15T10:00:20;32.58;;;17.50;;
31238;SDS011;17871;31.584;74.450;2023-03-15T10:03:00;31.45;;;16.05;;
31238;SDS011;17871;31.584;74.450;2023-03-15T10:05:40;43.83;;;18.13;;
31238;SDS011;17871;31.584;74.450;2023-03-15T10:08:11;28.70;;;15.80;;
31238;SDS011;17871;31.584;74.450;2023-03-15T10:10:52;33.83;;;16.05;;
31238;SDS011;17871;31.584;74.450;2023-03-15T10:13:41;31.08;;;16.33;;
31238;SDS011;17871;31.584;74.450;2023-03-15T10:16:41;36.70;;;16.42;;
31238;SDS011;17871;31.584;74.450;2023-03-15T10:29:56;54.78;;;18.35;;
31238;SDS011;17871;31.584;74.450;2023-03-15T10:32:36;60.60;;;20.23;;
31238;SDS011;17871;31.584;74.450;2023-03-15T10:35:15;40.50;;;19.42;;
31238;SDS011;17871;31.584;74.450;2023-03-15T10:37:47;38.67;;;19.20;;
31238;SDS011;17871;31.584;74.450;2023-03-15T10:40:37;39.72;;;18.48;;
31238;SDS011;17871;31.584;74.450;2023-03-15T10:46:01;39.40;;;19.25;;
31238;SDS011;17871;31.584;74.450;2023-03-15T10:48:34;35.63;;;17.30;;
31238;SDS011;17871;31.584;74.450;2023-03-15T10:51:12;38.00;;;17.67;;
31238;SDS011;17871;31.584;74.450;2023-03-15T10:53:59;33.85;;;18.45;;
31238;SDS011;17871;31.584;74.450;2023-03-15T10:56:36;38.03;;;18.10;;
31238;SDS011;17871;31.584;74.450;2023-03-15T10:59:18;36.63;;;18.63;;
31238;SDS011;17871;31.584;74.450;2023-03-15T11:01:52;33.50;;;17.92;;
31238;SDS011;17871;31.584;74.450;2023-03-15T11:04:43;33.65;;;18.33;;
31238;SDS011;17871;31.584;74.450;2023-03-15T11:07:18;39.28;;;17.45;;
31238;SDS011;17871;31.584;74.450;2023-03-15T11:09:53;29.23;;;17.77;;
31238;SDS011;17871;31.584;74.450;2023-03-15T11:12:28;33.33;;;16.95;;
31238;SDS011;17871;31.584;74.450;2023-03-15T11:15:11;37.05;;;17.77;;
31238;SDS011;17871;31.584;74.450;2023-03-15T11:23:17;40.05;;;19.58;;
31238;SDS011;17871;31.584;74.450;2023-03-15T11:25:55;32.65;;;17.40;;
31238;SDS011;17871;31.584;74.450;2023-03-15T11:28:27;37.10;;;17.58;;
31238;SDS011;17871;31.584;74.450;2023-03-15T11:30:59;31.50;;;16.83;;
31238;SDS011;17871;31.584;74.450;2023-03-15T11:33:36;42.22;;;17.23;;
31238;SDS011;17871;31.584;74.450;2023-03-15T11:36:31;57.17;;;17.60;;
31238;SDS011;17871;31.584;74.450;2023-03-15T11:39:04;36.88;;;17.45;;
31238;SDS011;17871;31.584;74.450;2023-03-15T11:41:41;42.15;;;16.38;;
31238;SDS011;17871;31.584;74.450;2023-03-15T11:46:48;41.28;;;17.50;;
31238;SDS011;17871;31.584;74.450;2023-03-15T11:52:13;38.08;;;17.13;;
31238;SDS011;17871;31.584;74.450;2023-03-15T11:54:44;41.90;;;16.98;;
31238;SDS011;17871;31.584;74.450;2023-03-15T11:59:57;38.97;;;17.73;;
31238;SDS011;17871;31.584;74.450;2023-03-15T12:02:58;37.17;;;16.45;;
31238;SDS011;17871;31.584;74.450;2023-03-15T12:05:50;28.60;;;16.17;;
31238;SDS011;17871;31.584;74.450;2023-03-15T12:08:23;38.63;;;17.52;;
31238;SDS011;17871;31.584;74.450;2023-03-15T12:11:10;34.58;;;17.23;;
31238;SDS011;17871;31.584;74.450;2023-03-15T12:13:49;38.88;;;17.30;;
31238;SDS011;17871;31.584;74.450;2023-03-15T12:16:29;47.17;;;18.88;;
31238;SDS011;17871;31.584;74.450;2023-03-15T12:19:13;44.75;;;17.35;;
31238;SDS011;17871;31.584;74.450;2023-03-15T12:21:47;43.25;;;17.42;;
31238;SDS011;17871;31.584;74.450;2023-03-15T12:24:26;34.10;;;17.08;;
31238;SDS011;17871;31.584;74.450;2023-03-15T12:27:00;44.75;;;18.38;;
31238;SDS011;17871;31.584;74.450;2023-03-15T12:29:45;40.17;;;18.75;;
31238;SDS011;17871;31.584;74.450;2023-03-15T12:32:18;33.22;;;18.00;;
31238;SDS011;17871;31.584;74.450;2023-03-15T12:34:52;52.70;;;17.98;;
31238;SDS011;17871;31.584;74.450;2023-03-15T12:37:36;46.83;;;18.38;;
31238;SDS011;17871;31.584;74.450;2023-03-15T12:42:58;77.15;;;21.50;;
31238;SDS011;17871;31.584;74.450;2023-03-15T12:45:34;43.55;;;19.52;;
31238;SDS011;17871;31.584;74.450;2023-03-15T12:56:24;60.92;;;21.95;;
31238;SDS011;17871;31.584;74.450;2023-03-15T12:59:31;58.35;;;21.48;;
31238;SDS011;17871;31.584;74.450;2023-03-15T13:02:28;57.53;;;22.60;;
31238;SDS011;17871;31.584;74.450;2023-03-15T13:16:24;55.97;;;20.50;;
31238;SDS011;17871;31.584;74.450;2023-03-15T13:22:01;42.72;;;20.52;;
31238;SDS011;17871;31.584;74.450;2023-03-15T13:25:16;50.72;;;22.95;;
31238;SDS011;17871;31.584;74.450;2023-03-15T13:28:15;47.17;;;22.25;;
31238;SDS011;17871;31.584;74.450;2023-03-15T13:30:55;73.38;;;30.00;;
31238;SDS011;17871;31.584;74.450;2023-03-15T13:33:27;63.80;;;24.10;;
31238;SDS011;17871;31.584;74.450;2023-03-15T13:36:10;58.63;;;24.92;;
31238;SDS011;17871;31.584;74.450;2023-03-15T13:38:46;63.42;;;27.02;;
31238;SDS011;17871;31.584;74.450;2023-03-15T13:41:26;56.00;;;25.00;;
31238;SDS011;17871;31.584;74.450;2023-03-15T13:43:59;66.80;;;28.80;;
31238;SDS011;17871;31.584;74.450;2023-03-15T13:46:33;74.50;;;25.65;;
31238;SDS011;17871;31.584;74.450;2023-03-15T13:49:03;70.63;;;26.27;;
31238;SDS011;17871;31.584;74.450;2023-03-15T13:51:34;54.97;;;25.45;;
31238;SDS011;17871;31.584;74.450;2023-03-15T13:57:17;58.50;;;27.42;;
31238;SDS011;17871;31.584;74.450;2023-03-15T13:59:50;75.47;;;26.70;;
31238;SDS011;17871;31.584;74.450;2023-03-15T14:02:57;44.55;;;25.23;;
31238;SDS011;17871;31.584;74.450;2023-03-15T14:05:41;69.82;;;30.35;;
31238;SDS011;17871;31.584;74.450;2023-03-15T14:11:01;91.55;;;34.40;;
31238;SDS011;17871;31.584;74.450;2023-03-15T14:13:50;81.75;;;31.20;;
31238;SDS011;17871;31.584;74.450;2023-03-15T14:16:41;65.85;;;28.27;;
31238;SDS011;17871;31.584;74.450;2023-03-15T14:19:34;90.28;;;31.55;;
31238;SDS011;17871;31.584;74.450;2023-03-15T14:22:12;110.60;;;42.35;;
31238;SDS011;17871;31.584;74.450;2023-03-15T14:24:43;103.18;;;34.03;;
31238;SDS011;17871;31.584;74.450;2023-03-15T14:27:17;110.85;;;34.60;;
31238;SDS011;17871;31.584;74.450;2023-03-15T14:29:52;113.38;;;33.05;;
31238;SDS011;17871;31.584;74.450;2023-03-15T14:32:26;79.40;;;29.67;;
31238;SDS011;17871;31.584;74.450;2023-03-15T14:38:01;83.90;;;34.92;;
31238;SDS011;17871;31.584;74.450;2023-03-15T14:40:36;82.35;;;32.38;;
31238;SDS011;17871;31.584;74.450;2023-03-15T14:43:07;89.13;;;30.95;;
31238;SDS011;17871;31.584;74.450;2023-03-15T14:45:39;134.68;;;35.17;;
31238;SDS011;17871;31.584;74.450;2023-03-15T14:50:49;98.80;;;42.85;;
31238;SDS011;17871;31.584;74.450;2023-03-15T14:53:20;151.45;;;59.25;;
31238;SDS011;17871;31.584;74.450;2023-03-15T14:55:52;170.73;;;67.32;;
31238;SDS011;17871;31.584;74.450;2023-03-15T14:58:22;231.10;;;95.65;;
31238;SDS011;17871;31.584;74.450;2023-03-15T15:00:53;251.63;;;108.25;;
31238;SDS011;17871;31.584;74.450;2023-03-15T15:05:59;262.67;;;105.57;;
31238;SDS011;17871;31.584;74.450;2023-03-15T15:08:30;284.83;;;115.18;;
31238;SDS011;17871;31.584;74.450;2023-03-15T15:11:01;297.15;;;118.78;;
31238;SDS011;17871;31.584;74.450;2023-03-15T15:13:30;289.27;;;116.45;;
31238;SDS011;17871;31.584;74.450;2023-03-15T15:16:02;276.65;;;113.65;;
31238;SDS011;17871;31.584;74.450;2023-03-15T15:18:34;260.38;;;105.10;;
31238;SDS011;17871;31.584;74.450;2023-03-15T15:23:58;241.43;;;100.13;;
31238;SDS011;17871;31.584;74.450;2023-03-15T15:26:30;207.88;;;89.20;;
31238;SDS011;17871;31.584;74.450;2023-03-15T15:29:01;158.60;;;70.35;;
31238;SDS011;17871;31.584;74.450;2023-03-15T15:31:31;148.02;;;62.70;;
31238;SDS011;17871;31.584;74.450;2023-03-15T15:34:01;117.22;;;58.15;;
31238;SDS011;17871;31.584;74.450;2023-03-15T15:36:33;127.22;;;60.30;;
31238;SDS011;17871;31.584;74.450;2023-03-15T15:39:39;123.15;;;54.67;;
31238;SDS011;17871;31.584;74.450;2023-03-15T15:42:01;105.63;;;47.42;;
31238;SDS011;17871;31.584;74.450;2023-03-15T15:44:31;86.47;;;40.90;;
31238;SDS011;17871;31.584;74.450;2023-03-15T15:47:01;68.90;;;37.75;;
31238;SDS011;17871;31.584;74.450;2023-03-15T15:49:30;58.42;;;31.58;;
31238;SDS011;17871;31.584;74.450;2023-03-15T15:52:00;70.50;;;30.88;;
31238;SDS011;17871;31.584;74.450;2023-03-15T15:54:31;58.67;;;29.48;;
31238;SDS011;17871;31.584;74.450;2023-03-15T15:57:03;56.45;;;29.60;;
31238;SDS011;17871;31.584;74.450;2023-03-15T15:59:35;60.80;;;32.10;;
31238;SDS011;17871;31.584;74.450;2023-03-15T16:02:08;84.68;;;34.15;;
31238;SDS011;17871;31.584;74.450;2023-03-15T16:04:43;118.72;;;32.45;;
31238;SDS011;17871;31.584;74.450;2023-03-15T16:07:13;72.20;;;28.05;;
31238;SDS011;17871;31.584;74.450;2023-03-15T16:09:44;160.80;;;31.92;;
31238;SDS011;17871;31.584;74.450;2023-03-15T16:12:16;65.90;;;26.92;;
31238;SDS011;17871;31.584;74.450;2023-03-15T16:14:48;53.95;;;25.02;;
31238;SDS011;17871;31.584;74.450;2023-03-15T16:17:22;50.67;;;25.60;;